Time;durP1;ratioP1;P1;durP2;ratioP2;P2;SDS_P1;SDS_P2;PMS_P1;PMS_P2;Temp;Humidity;BMP_temperature;BMP_pressure;BME280_temperature;BME280_humidity;BME280_pressure;Samples;Min_cycle;Max_cycle;Signal;HPM_P1;HPM_P2
2024/02/20 00:01:11;;;;;;;12.80;12.00;;;8.10;99.90;;;;;;4867456;29;20217;-77
2024/02/20 00:03:38;;;;;;;12.27;11.50;;;8.10;99.90;;;;;;4866140;29;20206;-77
2024/02/20 00:06:06;;;;;;;12.37;11.67;;;8.10;99.90;;;;;;4866197;29;20257;-77
2024/02/20 00:08:35;;;;;;;12.70;11.90;;;8.10;99.90;;;;;;4864569;29;20206;-77
2024/02/20 00:11:04;;;;;;;12.10;11.40;;;8.10;99.90;;;;;;4865548;29;20230;-76
2024/02/20 00:13:31;;;;;;;12.30;11.47;;;8.10;99.90;;;;;;4865988;29;20654;-77
2024/02/20 00:15:58;;;;;;;12.60;11.80;;;8.10;99.90;;;;;;4866077;29;20292;-77
2024/02/20 00:18:25;;;;;;;12.33;11.43;;;8.10;99.90;;;;;;4865897;29;20267;-78
2024/02/20 00:20:52;;;;;;;13.00;12.10;;;8.10;99.90;;;;;;4865787;29;20224;-76
2024/02/20 00:23:19;;;;;;;12.53;11.83;;;8.10;99.90;;;;;;4865824;29;20230;-76
2024/02/20 00:25:48;;;;;;;12.83;12.13;;;8.10;99.90;;;;;;4865444;29;20209;-77
2024/02/20 00:28:15;;;;;;;13.10;12.30;;;8.00;99.90;;;;;;4865425;29;20203;-76
2024/02/20 00:30:42;;;;;;;12.90;12.10;;;8.00;99.90;;;;;;4865375;29;20226;-77
2024/02/20 00:33:09;;;;;;;13.37;12.40;;;8.00;99.90;;;;;;4863553;29;20211;-77
2024/02/20 00:35:36;;;;;;;14.83;13.80;;;8.00;99.90;;;;;;4869102;29;20201;-77
2024/02/20 00:38:03;;;;;;;13.50;12.60;;;8.00;99.90;;;;;;4865592;29;20205;-76
2024/02/20 00:40:30;;;;;;;13.10;12.20;;;8.00;99.90;;;;;;4867610;29;20230;-77
2024/02/20 00:42:58;;;;;;;13.67;12.77;;;8.00;99.90;;;;;;4861763;29;20563;-76
2024/02/20 00:45:26;;;;;;;13.80;13.00;;;8.00;99.90;;;;;;4864505;29;20285;-77
2024/02/20 00:47:52;;;;;;;13.40;12.40;;;8.00;99.90;;;;;;4861635;29;20253;-76
2024/02/20 00:50:19;;;;;;;13.10;12.20;;;8.00;99.90;;;;;;4862082;29;20218;-77
2024/02/20 00:52:46;;;;;;;12.63;11.93;;;7.90;99.90;;;;;;4865512;29;20206;-77
2024/02/20 00:55:13;;;;;;;13.37;12.50;;;8.00;99.90;;;;;;4865605;29;20202;-78
2024/02/20 00:57:40;;;;;;;13.20;12.40;;;7.90;99.90;;;;;;4865470;29;20564;-77
2024/02/20 01:00:13;;;;;;;13.60;12.50;;;8.00;99.90;;;;;;4859884;29;20207;-77
2024/02/20 01:02:40;;;;;;;13.33;12.50;;;8.00;99.90;;;;;;4865167;29;20225;-76
2024/02/20 01:05:09;;;;;;;13.67;12.77;;;7.90;99.90;;;;;;4865638;29;20228;-76
2024/02/20 01:07:37;;;;;;;13.93;12.83;;;7.90;99.90;;;;;;4863929;29;20230;-77
2024/02/20 01:10:04;;;;;;;13.40;12.53;;;7.90;99.90;;;;;;4869327;29;20222;-77
2024/02/20 01:12:31;;;;;;;13.50;12.60;;;7.90;99.90;;;;;;4862469;29;20636;-77
2024/02/20 01:14:58;;;;;;;14.00;13.07;;;8.00;99.90;;;;;;4859563;29;20317;-76
2024/02/20 01:17:26;;;;;;;13.40;12.50;;;7.90;99.90;;;;;;4865468;29;20210;-76
2024/02/20 01:19:53;;;;;;;14.17;13.27;;;8.00;99.90;;;;;;4863063;29;20562;-76
2024/02/20 01:22:20;;;;;;;14.27;13.43;;;7.90;99.90;;;;;;4864760;29;20229;-77
2024/02/20 01:24:47;;;;;;;13.90;13.00;;;8.00;99.90;;;;;;4863336;29;20206;-77
2024/02/20 01:27:14;;;;;;;13.87;13.00;;;8.00;99.90;;;;;;4864646;29;20198;-77
2024/02/20 01:29:43;;;;;;;14.33;13.43;;;8.00;99.90;;;;;;4862519;29;20209;-77
2024/02/20 01:32:10;;;;;;;14.23;13.33;;;8.00;99.90;;;;;;4868159;29;20229;-78
2024/02/20 01:34:38;;;;;;;13.80;13.00;;;8.00;99.90;;;;;;4864441;29;20210;-76
2024/02/20 01:37:05;;;;;;;13.67;12.87;;;7.90;99.90;;;;;;4870986;29;20741;-77
2024/02/20 01:39:32;;;;;;;14.27;13.33;;;7.90;99.90;;;;;;4878162;29;20296;-77
2024/02/20 01:41:59;;;;;;;14.40;13.50;;;7.90;99.90;;;;;;4864414;29;20214;-77
2024/02/20 01:44:32;;;;;;;14.13;13.30;;;7.90;99.90;;;;;;4866494;29;20210;-77
2024/02/20 01:46:59;;;;;;;14.13;13.33;;;7.80;99.90;;;;;;4862802;29;20301;-76
2024/02/20 01:49:26;;;;;;;14.13;13.23;;;7.80;99.90;;;;;;4878134;29;20601;-77
2024/02/20 01:51:56;;;;;;;14.40;13.47;;;7.80;99.90;;;;;;4863799;29;20274;-77
2024/02/20 01:54:23;;;;;;;13.90;13.10;;;7.80;99.90;;;;;;4865889;29;20214;-76
2024/02/20 01:56:50;;;;;;;14.30;13.40;;;7.90;99.90;;;;;;4864295;29;20629;-76
2024/02/20 01:59:17;;;;;;;13.63;12.77;;;7.80;99.90;;;;;;4863705;29;20738;-76
2024/02/20 02:01:44;;;;;;;13.93;13.03;;;7.90;99.90;;;;;;4864790;29;20226;-77
2024/02/20 02:04:11;;;;;;;14.10;13.20;;;7.90;99.90;;;;;;4863105;29;20662;-76
2024/02/20 02:06:39;;;;;;;14.07;13.17;;;7.80;99.90;;;;;;4878114;29;20277;-77
2024/02/20 02:09:07;;;;;;;13.53;12.73;;;7.90;99.90;;;;;;4863601;29;20667;-76
2024/02/20 02:11:39;;;;;;;14.30;13.30;;;7.90;99.90;;;;;;4861538;29;20242;-77
2024/02/20 02:14:06;;;;;;;14.03;13.13;;;7.90;99.90;;;;;;4863677;29;20288;-77
2024/02/20 02:16:33;;;;;;;14.20;13.40;;;7.90;99.90;;;;;;4863783;29;20229;-77
2024/02/20 02:19:00;;;;;;;13.90;12.90;;;7.90;99.90;;;;;;4863059;29;20210;-76
2024/02/20 02:21:28;;;;;;;14.10;13.30;;;7.80;99.90;;;;;;4863938;29;20568;-77
2024/02/20 02:23:55;;;;;;;13.73;12.83;;;7.90;99.90;;;;;;4859867;29;20206;-76
2024/02/20 02:26:23;;;;;;;14.20;13.30;;;7.80;99.90;;;;;;4860779;29;20210;-76
2024/02/20 02:28:50;;;;;;;14.07;13.17;;;7.90;99.90;;;;;;4859237;29;20207;-76
2024/02/20 02:31:17;;;;;;;13.67;12.87;;;7.80;99.90;;;;;;4861972;29;20230;-76
2024/02/20 02:33:45;;;;;;;14.00;13.20;;;7.80;99.90;;;;;;4863646;29;20265;-77
2024/02/20 02:36:12;;;;;;;14.40;13.30;;;7.80;99.90;;;;;;4864314;29;20261;-76
2024/02/20 02:38:39;;;;;;;13.80;13.00;;;7.80;99.90;;;;;;4861898;29;20206;-77
2024/02/20 02:41:06;;;;;;;14.60;13.40;;;7.80;99.90;;;;;;4863797;29;20248;-77
2024/02/20 02:43:34;;;;;;;13.77;12.87;;;7.80;99.90;;;;;;4859823;29;20214;-77
2024/02/20 02:46:01;;;;;;;14.73;13.90;;;7.80;99.90;;;;;;4862243;29;20197;-77
2024/02/20 02:48:28;;;;;;;15.07;14.17;;;7.80;99.90;;;;;;4863201;29;20210;-77
2024/02/20 02:50:55;;;;;;;15.10;14.00;;;7.80;99.90;;;;;;4856642;29;20253;-78
2024/02/20 02:53:22;;;;;;;14.97;13.90;;;7.80;99.90;;;;;;4862976;29;20239;-77
2024/02/20 02:55:49;;;;;;;14.00;13.20;;;7.80;99.90;;;;;;4872108;29;20673;-77
2024/02/20 02:58:15;;;;;;;14.70;13.87;;;7.80;99.90;;;;;;4863317;29;20202;-76
2024/02/20 03:00:44;;;;;;;14.20;13.30;;;7.70;99.90;;;;;;4866513;29;20217;-78
2024/02/20 03:03:10;;;;;;;14.47;13.57;;;7.80;99.90;;;;;;4862380;29;20211;-77
2024/02/20 03:05:37;;;;;;;13.93;13.13;;;7.80;99.90;;;;;;4865314;29;20234;-77
2024/02/20 03:08:05;;;;;;;13.67;12.77;;;7.70;99.90;;;;;;4866907;29;20201;-77
2024/02/20 03:10:32;;;;;;;14.20;13.30;;;7.70;99.90;;;;;;4863192;29;20230;-77
2024/02/20 03:12:59;;;;;;;13.97;13.17;;;7.70;99.90;;;;;;4866960;29;20216;-77
2024/02/20 03:15:26;;;;;;;13.90;13.00;;;7.70;99.90;;;;;;4866818;29;20270;-76
2024/02/20 03:17:54;;;;;;;15.20;14.30;;;7.70;99.90;;;;;;4884914;29;20206;-77
2024/02/20 03:20:21;;;;;;;15.70;14.60;;;7.70;99.90;;;;;;4867041;29;20254;-77
2024/02/20 03:22:48;;;;;;;14.60;13.80;;;7.70;99.90;;;;;;4867209;29;20216;-76
2024/02/20 03:25:15;;;;;;;16.03;14.70;;;7.70;99.90;;;;;;4866653;29;20202;-76
2024/02/20 03:27:42;;;;;;;14.93;13.87;;;7.60;99.90;;;;;;4866464;29;20234;-77
2024/02/20 03:30:10;;;;;;;15.03;14.13;;;7.60;99.90;;;;;;4867074;29;20225;-77
2024/02/20 03:32:38;;;;;;;15.20;14.30;;;7.60;99.90;;;;;;4866831;29;20252;-77
2024/02/20 03:35:10;;;;;;;14.80;13.80;;;7.60;99.90;;;;;;4864606;29;20209;-77
2024/02/20 03:37:38;;;;;;;13.77;12.87;;;7.60;99.90;;;;;;4881207;29;20688;-77
2024/02/20 03:40:06;;;;;;;14.20;13.30;;;7.60;99.90;;;;;;4864192;29;20646;-77
2024/02/20 03:42:33;;;;;;;13.50;12.63;;;7.60;99.90;;;;;;4866255;29;20273;-77
2024/02/20 03:45:00;;;;;;;13.17;12.30;;;7.60;99.90;;;;;;4865480;29;20786;-76
2024/02/20 03:47:26;;;;;;;13.87;12.97;;;7.60;99.90;;;;;;4865098;29;20275;-76
2024/02/20 03:49:53;;;;;;;13.77;12.90;;;7.60;99.90;;;;;;4864059;29;20701;-77
2024/02/20 03:52:22;;;;;;;14.00;13.10;;;7.50;99.90;;;;;;4873503;29;20230;-78
2024/02/20 03:54:49;;;;;;;13.90;13.10;;;7.50;99.90;;;;;;4862394;29;20198;-78
2024/02/20 03:57:15;;;;;;;13.17;12.27;;;7.50;99.90;;;;;;4856199;29;20208;-78
2024/02/20 03:59:42;;;;;;;12.93;12.03;;;7.50;99.90;;;;;;4860490;29;20202;-77
2024/02/20 04:02:10;;;;;;;13.30;12.30;;;7.50;99.90;;;;;;4873831;29;20282;-78
2024/02/20 04:04:36;;;;;;;13.73;12.83;;;7.50;99.90;;;;;;4862463;29;20293;-77
2024/02/20 04:07:04;;;;;;;14.17;13.20;;;7.40;99.90;;;;;;4866164;29;20205;-78
2024/02/20 04:09:32;;;;;;;13.77;12.97;;;7.40;99.90;;;;;;4873114;29;20197;-79
2024/02/20 04:11:59;;;;;;;13.27;12.20;;;7.40;99.90;;;;;;4869054;29;20222;-78
2024/02/20 04:14:25;;;;;;;13.43;12.63;;;7.40;99.90;;;;;;4861113;29;20278;-78
2024/02/20 04:16:51;;;;;;;13.87;13.00;;;7.40;99.90;;;;;;4861300;29;20209;-78
2024/02/20 04:19:18;;;;;;;14.17;13.27;;;7.40;99.90;;;;;;4860982;29;20221;-78
2024/02/20 04:21:46;;;;;;;13.87;12.97;;;7.40;99.90;;;;;;4868406;29;20221;-78
2024/02/20 04:24:12;;;;;;;12.80;12.00;;;7.40;99.90;;;;;;4864049;29;20198;-77
2024/02/20 04:26:41;;;;;;;12.77;12.07;;;7.40;99.90;;;;;;4867586;29;20271;-78
2024/02/20 04:29:08;;;;;;;13.40;12.50;;;7.40;99.90;;;;;;4861729;29;20208;-77
2024/02/20 04:31:34;;;;;;;14.30;13.40;;;7.40;99.90;;;;;;4872209;29;20241;-76
2024/02/20 04:34:01;;;;;;;13.07;12.30;;;7.40;99.90;;;;;;4863715;29;20240;-77
2024/02/20 04:36:28;;;;;;;13.97;13.07;;;7.40;99.90;;;;;;4865690;29;20206;-76
2024/02/20 04:38:57;;;;;;;13.90;12.93;;;7.40;99.90;;;;;;4861391;29;20274;-76
2024/02/20 04:41:25;;;;;;;15.57;14.50;;;7.40;99.90;;;;;;4864466;29;20221;-77
2024/02/20 04:43:53;;;;;;;15.20;14.00;;;7.40;99.90;;;;;;4864424;29;20201;-77
2024/02/20 04:46:20;;;;;;;14.90;13.83;;;7.40;99.90;;;;;;4857685;29;20214;-76
2024/02/20 04:48:47;;;;;;;13.60;12.73;;;7.40;99.90;;;;;;4859794;29;20749;-76
2024/02/20 04:51:14;;;;;;;13.30;12.40;;;7.40;99.90;;;;;;4861113;29;20237;-76
2024/02/20 04:53:41;;;;;;;13.80;12.90;;;7.40;99.90;;;;;;4860707;29;20228;-76
2024/02/20 04:56:07;;;;;;;13.87;12.97;;;7.40;99.90;;;;;;4861085;29;20273;-76
2024/02/20 04:58:35;;;;;;;14.47;13.57;;;7.30;99.90;;;;;;4855998;29;20263;-76
2024/02/20 05:01:03;;;;;;;15.20;14.10;;;7.30;99.90;;;;;;4860401;29;20717;-76
2024/02/20 05:03:29;;;;;;;14.93;13.93;;;7.30;99.90;;;;;;4860331;29;20202;-76
2024/02/20 05:05:56;;;;;;;14.40;13.30;;;7.30;99.90;;;;;;4860339;29;20228;-76
2024/02/20 05:08:23;;;;;;;14.10;13.20;;;7.20;99.90;;;;;;4860775;29;20202;-76
2024/02/20 05:10:50;;;;;;;15.20;14.30;;;7.20;99.90;;;;;;4862539;29;20249;-75
2024/02/20 05:13:16;;;;;;;15.93;14.73;;;7.20;99.90;;;;;;4863829;29;20297;-77
2024/02/20 05:15:43;;;;;;;15.93;14.90;;;7.10;99.90;;;;;;4862185;29;20230;-77
2024/02/20 05:18:12;;;;;;;15.43;14.53;;;7.10;99.90;;;;;;4863353;29;20259;-76
2024/02/20 05:20:38;;;;;;;16.60;15.33;;;7.00;99.90;;;;;;4861169;29;20310;-76
2024/02/20 05:23:05;;;;;;;15.83;14.87;;;7.00;99.90;;;;;;4859318;29;20225;-76
2024/02/20 05:25:32;;;;;;;16.10;15.10;;;6.90;99.90;;;;;;4859576;29;20206;-77
2024/02/20 05:27:59;;;;;;;15.80;14.87;;;6.90;99.90;;;;;;4862942;29;20254;-76
2024/02/20 05:30:25;;;;;;;16.80;15.60;;;6.80;99.90;;;;;;4863660;29;20282;-77
2024/02/20 05:32:52;;;;;;;16.13;15.00;;;6.80;99.90;;;;;;4862364;29;20226;-76
2024/02/20 05:35:20;;;;;;;16.00;14.80;;;6.70;99.90;;;;;;4863752;29;20206;-77
2024/02/20 05:37:47;;;;;;;15.70;14.80;;;6.70;99.90;;;;;;4863520;29;20206;-76
2024/02/20 05:40:14;;;;;;;16.30;15.30;;;6.60;99.90;;;;;;4858698;29;20255;-78
2024/02/20 05:42:41;;;;;;;15.50;14.40;;;6.60;99.90;;;;;;4867611;29;20201;-76
2024/02/20 05:45:09;;;;;;;16.60;15.50;;;6.60;99.90;;;;;;4863064;29;20272;-76
2024/02/20 05:47:36;;;;;;;17.10;15.67;;;6.50;99.90;;;;;;4867669;29;20275;-77
2024/02/20 05:50:03;;;;;;;16.63;15.43;;;6.50;99.90;;;;;;4861381;29;20229;-77
2024/02/20 05:52:31;;;;;;;16.87;15.47;;;6.60;99.90;;;;;;4867550;29;20260;-77
2024/02/20 05:54:57;;;;;;;16.37;15.23;;;6.50;99.90;;;;;;4863735;29;20205;-76
2024/02/20 05:57:24;;;;;;;16.40;15.30;;;6.50;99.90;;;;;;4858807;29;20320;-77
2024/02/20 05:59:51;;;;;;;16.40;15.20;;;6.60;99.90;;;;;;4864936;29;20640;-77
2024/02/20 06:02:18;;;;;;;16.57;15.47;;;6.50;99.90;;;;;;4861835;29;20305;-77
2024/02/20 06:04:45;;;;;;;16.80;15.60;;;6.60;99.90;;;;;;4876502;29;20214;-77
2024/02/20 06:07:12;;;;;;;16.97;15.77;;;6.60;99.90;;;;;;4862876;29;20201;-77
2024/02/20 06:09:40;;;;;;;17.63;16.30;;;6.60;99.90;;;;;;4863206;29;20210;-77
2024/02/20 06:12:09;;;;;;;18.00;16.50;;;6.60;99.90;;;;;;4862690;29;20230;-77
2024/02/20 06:14:36;;;;;;;17.33;16.10;;;6.50;99.90;;;;;;4862401;29;20270;-77
2024/02/20 06:17:03;;;;;;;16.97;15.70;;;6.60;99.90;;;;;;4862420;29;20205;-77
2024/02/20 06:19:30;;;;;;;16.83;15.60;;;6.60;99.90;;;;;;4862966;29;20212;-77
2024/02/20 06:21:56;;;;;;;16.37;15.07;;;6.60;99.90;;;;;;4861418;29;20507;-77
2024/02/20 06:24:23;;;;;;;16.47;15.00;;;6.50;99.90;;;;;;4858313;29;20214;-77
2024/02/20 06:26:51;;;;;;;16.77;15.37;;;6.60;99.90;;;;;;4859476;29;20208;-77
2024/02/20 06:29:18;;;;;;;16.87;15.43;;;6.60;99.90;;;;;;4863017;29;20240;-76
2024/02/20 06:31:51;;;;;;;15.97;14.87;;;6.60;99.90;;;;;;4858479;29;20237;-77
2024/02/20 06:34:17;;;;;;;17.03;15.57;;;6.60;99.90;;;;;;4858803;29;20221;-77
2024/02/20 06:36:44;;;;;;;18.17;16.50;;;6.60;99.90;;;;;;4862637;29;20669;-77
2024/02/20 06:39:11;;;;;;;17.17;15.97;;;6.60;99.90;;;;;;4860455;29;20212;-77
2024/02/20 06:41:38;;;;;;;16.70;15.37;;;6.60;99.90;;;;;;4860325;29;20257;-76
2024/02/20 06:44:06;;;;;;;16.67;15.27;;;6.60;99.90;;;;;;4860447;29;20253;-77
2024/02/20 06:46:33;;;;;;;15.83;14.73;;;6.60;99.90;;;;;;4858025;29;20233;-77
2024/02/20 06:49:00;;;;;;;16.57;15.07;;;6.60;99.90;;;;;;4860602;29;20209;-77
2024/02/20 06:51:27;;;;;;;16.30;15.00;;;6.60;99.90;;;;;;4857730;29;20242;-77
2024/02/20 06:53:54;;;;;;;16.83;15.30;;;6.60;99.90;;;;;;4866704;29;20293;-77
2024/02/20 06:56:21;;;;;;;16.77;15.17;;;6.60;99.90;;;;;;4862226;29;20217;-77
2024/02/20 06:58:48;;;;;;;15.90;14.50;;;6.70;99.90;;;;;;4859013;29;20214;-77
2024/02/20 07:01:16;;;;;;;15.90;14.60;;;6.60;99.90;;;;;;4876765;29;20724;-77
2024/02/20 07:03:43;;;;;;;16.07;14.77;;;6.70;99.90;;;;;;4862929;29;20428;-77
2024/02/20 07:06:10;;;;;;;15.40;14.23;;;6.70;99.90;;;;;;4862283;29;20213;-77
2024/02/20 07:08:37;;;;;;;14.80;13.80;;;6.70;99.90;;;;;;4862070;29;20202;-77
2024/02/20 07:11:04;;;;;;;14.97;13.83;;;6.70;99.90;;;;;;4868910;29;20260;-76
2024/02/20 07:13:35;;;;;;;15.27;14.20;;;6.80;99.90;;;;;;4861961;29;20225;-77
2024/02/20 07:16:03;;;;;;;15.23;14.20;;;6.80;99.90;;;;;;4867851;29;20244;-77
2024/02/20 07:18:31;;;;;;;15.30;14.20;;;6.90;99.90;;;;;;4859093;29;20206;-76
2024/02/20 07:20:58;;;;;;;15.23;14.17;;;6.90;99.90;;;;;;4862185;29;20217;-77
2024/02/20 07:23:25;;;;;;;14.90;13.83;;;6.90;99.90;;;;;;4858777;29;20259;-76
2024/02/20 07:25:53;;;;;;;15.03;13.93;;;7.00;99.90;;;;;;4862386;29;20213;-77
2024/02/20 07:28:19;;;;;;;15.23;14.07;;;7.00;99.90;;;;;;4858190;29;20206;-77
2024/02/20 07:30:46;;;;;;;15.07;13.90;;;7.00;99.90;;;;;;4860822;29;20218;-77
2024/02/20 07:33:13;;;;;;;15.83;14.60;;;7.00;99.90;;;;;;4868296;29;20270;-77
2024/02/20 07:35:41;;;;;;;15.03;14.13;;;7.10;99.90;;;;;;4860836;29;20270;-77
2024/02/20 07:38:08;;;;;;;15.57;14.43;;;7.10;99.90;;;;;;4869792;29;20305;-77
2024/02/20 07:40:34;;;;;;;15.00;14.00;;;7.10;99.90;;;;;;4864686;29;20225;-77
2024/02/20 07:43:01;;;;;;;15.10;14.00;;;7.20;99.90;;;;;;4864723;29;20267;-77
2024/02/20 07:45:28;;;;;;;15.00;14.00;;;7.20;99.90;;;;;;4859953;29;20210;-77
2024/02/20 07:47:55;;;;;;;15.07;13.80;;;7.20;99.90;;;;;;4872929;29;20682;-76
2024/02/20 07:50:22;;;;;;;15.83;14.30;;;7.20;99.90;;;;;;4859893;29;20210;-77
2024/02/20 07:52:50;;;;;;;15.40;14.10;;;7.30;99.90;;;;;;4868875;29;20242;-77
2024/02/20 07:55:18;;;;;;;14.50;13.50;;;7.40;99.90;;;;;;4864408;29;20237;-77
2024/02/20 07:57:44;;;;;;;14.00;12.80;;;7.40;99.90;;;;;;4863723;29;20244;-77
2024/02/20 08:00:13;;;;;;;15.23;13.97;;;7.40;99.90;;;;;;4867973;29;20237;-77
2024/02/20 08:02:40;;;;;;;13.87;12.67;;;7.40;99.90;;;;;;4861761;29;20209;-76
2024/02/20 08:05:07;;;;;;;14.53;13.30;;;7.50;99.90;;;;;;4864183;29;20738;-77
2024/02/20 08:07:34;;;;;;;13.97;12.90;;;7.50;99.90;;;;;;4864411;29;20213;-76
2024/02/20 08:10:02;;;;;;;14.00;13.00;;;7.60;99.90;;;;;;4863048;29;20254;-77
2024/02/20 08:12:29;;;;;;;13.93;12.87;;;7.60;99.90;;;;;;4858792;29;20215;-77
2024/02/20 08:14:56;;;;;;;13.90;12.90;;;7.70;99.90;;;;;;4860632;29;20214;-76
2024/02/20 08:17:23;;;;;;;13.47;12.10;;;7.70;99.90;;;;;;4863678;29;20574;-77
2024/02/20 08:19:50;;;;;;;13.10;11.90;;;7.80;99.90;;;;;;4863342;29;20669;-77
2024/02/20 08:22:17;;;;;;;12.87;11.87;;;7.90;99.90;;;;;;4862833;29;20633;-76
2024/02/20 08:24:44;;;;;;;13.37;11.97;;;8.00;99.90;;;;;;4863363;29;20269;-77
2024/02/20 08:27:13;;;;;;;12.80;11.83;;;8.10;99.90;;;;;;4860673;29;20202;-77
2024/02/20 08:29:39;;;;;;;12.70;11.60;;;8.20;99.90;;;;;;4859211;29;20214;-76
2024/02/20 08:32:06;;;;;;;12.27;11.33;;;8.30;99.90;;;;;;4860813;29;20230;-77
2024/02/20 08:34:33;;;;;;;12.97;11.77;;;8.40;99.90;;;;;;4870268;29;20275;-76
2024/02/20 08:37:00;;;;;;;11.50;10.60;;;8.50;99.90;;;;;;4859384;29;20682;-77
2024/02/20 08:39:27;;;;;;;12.10;11.10;;;8.60;99.90;;;;;;4863349;29;20271;-77
2024/02/20 08:41:53;;;;;;;11.27;10.27;;;8.60;99.90;;;;;;4859016;29;20226;-77
2024/02/20 08:44:23;;;;;;;11.93;10.83;;;8.80;99.90;;;;;;4862825;29;20226;-77
2024/02/20 08:46:50;;;;;;;12.97;11.80;;;8.80;99.90;;;;;;4863936;29;20209;-77
2024/02/20 08:49:17;;;;;;;13.43;12.23;;;8.80;99.90;;;;;;4861917;29;20674;-77
2024/02/20 08:51:44;;;;;;;13.17;12.17;;;8.90;99.90;;;;;;4863499;29;20222;-77
2024/02/20 08:54:11;;;;;;;13.73;12.43;;;8.90;99.90;;;;;;4862991;29;20226;-77
2024/02/20 08:56:37;;;;;;;13.53;12.47;;;8.90;99.90;;;;;;4869717;29;20608;-77
2024/02/20 08:59:05;;;;;;;13.83;12.43;;;9.00;99.90;;;;;;4859214;29;20208;-77
2024/02/20 09:01:33;;;;;;;14.10;12.53;;;9.10;99.90;;;;;;4863957;29;20812;-77
2024/02/20 09:03:59;;;;;;;13.73;12.43;;;9.20;99.90;;;;;;4862428;29;20230;-77
2024/02/20 09:06:26;;;;;;;13.87;12.60;;;9.30;99.90;;;;;;4863549;29;20205;-77
2024/02/20 09:08:53;;;;;;;13.47;12.27;;;9.30;99.90;;;;;;4862374;29;20237;-77
2024/02/20 09:11:20;;;;;;;12.93;11.80;;;9.50;99.90;;;;;;4877583;29;20227;-77
2024/02/20 09:13:47;;;;;;;12.97;11.90;;;9.60;99.90;;;;;;4863248;29;20225;-77
2024/02/20 09:16:14;;;;;;;12.53;11.43;;;9.70;99.90;;;;;;4864196;29;20700;-77
2024/02/20 09:18:42;;;;;;;13.30;12.30;;;9.80;99.90;;;;;;4862293;29;20207;-77
2024/02/20 09:21:09;;;;;;;13.50;12.40;;;9.90;99.90;;;;;;4863709;29;20222;-77
2024/02/20 09:23:37;;;;;;;13.70;12.57;;;10.00;99.90;;;;;;4863822;29;20208;-76
2024/02/20 09:26:05;;;;;;;14.77;12.47;;;10.10;99.90;;;;;;4864049;29;20293;-76
2024/02/20 09:28:32;;;;;;;12.83;11.67;;;10.10;99.90;;;;;;4861700;29;20297;-77
2024/02/20 09:30:58;;;;;;;12.63;11.43;;;10.10;99.90;;;;;;4864376;29;20230;-77
2024/02/20 09:33:25;;;;;;;12.53;11.53;;;10.20;99.90;;;;;;4862598;29;20549;-77
2024/02/20 09:35:53;;;;;;;13.33;12.37;;;10.20;99.90;;;;;;4862675;29;20263;-77
2024/02/20 09:38:20;;;;;;;12.40;11.20;;;10.20;99.90;;;;;;4876329;29;20215;-77
2024/02/20 09:40:48;;;;;;;12.80;11.60;;;10.20;99.90;;;;;;4860979;29;20220;-77
2024/02/20 09:43:17;;;;;;;13.23;12.20;;;10.20;99.90;;;;;;4868296;29;20205;-77
2024/02/20 09:45:45;;;;;;;12.97;12.07;;;10.70;99.90;;;;;;4862500;29;20309;-77
2024/02/20 09:48:14;;;;;;;13.30;12.10;;;11.10;99.90;;;;;;4863455;29;20208;-77
2024/02/20 09:50:43;;;;;;;12.73;11.73;;;11.30;99.90;;;;;;4863006;29;20735;-76
2024/02/20 09:53:13;;;;;;;13.10;11.97;;;11.20;99.90;;;;;;4861020;29;20229;-77
2024/02/20 09:55:41;;;;;;;13.73;12.47;;;11.00;99.90;;;;;;4863730;29;20288;-77
2024/02/20 09:58:08;;;;;;;16.90;12.63;;;10.90;99.90;;;;;;4861917;29;20508;-77
2024/02/20 10:00:36;;;;;;;12.93;11.93;;;11.00;99.90;;;;;;4858611;29;20254;-77
2024/02/20 10:03:04;;;;;;;13.63;12.43;;;10.90;99.90;;;;;;4861408;29;20204;-77
2024/02/20 10:05:34;;;;;;;13.47;12.27;;;10.80;99.90;;;;;;4863076;29;20225;-77
2024/02/20 10:08:00;;;;;;;13.50;12.13;;;10.70;99.90;;;;;;4863771;29;20236;-77
2024/02/20 10:10:32;;;;;;;12.90;11.67;;;10.80;99.90;;;;;;4862541;29;20611;-77
2024/02/20 10:13:00;;;;;;;12.70;11.47;;;10.90;99.90;;;;;;4861065;29;20291;-77
2024/02/20 10:15:27;;;;;;;14.13;13.00;;;11.00;99.90;;;;;;4874328;29;20213;-77
2024/02/20 10:17:59;;;;;;;14.47;13.07;;;11.10;99.90;;;;;;4862256;29;20208;-77
2024/02/20 10:20:26;;;;;;;12.63;11.40;;;11.20;99.90;;;;;;4861705;29;20225;-77
2024/02/20 10:23:03;;;;;;;12.27;11.23;;;11.30;99.90;;;;;;4862664;29;20673;-77
2024/02/20 10:25:31;;;;;;;10.87;6.10;;;11.40;99.90;;;;;;4862795;29;20753;-77
2024/02/20 10:27:58;;;;;;;7.53;6.70;;;11.20;99.90;;;;;;4862124;29;20204;-77
2024/02/20 10:30:25;;;;;;;9.53;4.40;;;11.10;99.90;;;;;;4863376;29;20233;-77
2024/02/20 10:32:52;;;;;;;8.23;4.20;;;11.30;99.90;;;;;;4862066;29;20270;-77
2024/02/20 10:35:21;;;;;;;11.07;6.50;;;11.50;99.90;;;;;;4863349;29;20210;-76
2024/02/20 10:37:48;;;;;;;15.00;13.60;;;11.50;99.90;;;;;;4863635;29;20204;-77
2024/02/20 10:40:16;;;;;;;13.13;12.03;;;11.70;99.90;;;;;;4861310;29;20265;-78
2024/02/20 10:42:44;;;;;;;14.80;12.60;;;11.90;99.90;;;;;;4856923;29;20698;-78
2024/02/20 10:45:12;;;;;;;12.93;11.80;;;11.90;99.90;;;;;;4866517;29;20210;-78
2024/02/20 10:47:44;;;;;;;13.57;12.47;;;11.80;99.90;;;;;;4866335;29;20692;-77
2024/02/20 10:50:13;;;;;;;13.40;12.10;;;11.70;99.90;;;;;;4871085;29;20211;-77
2024/02/20 10:52:41;;;;;;;12.70;11.60;;;11.40;99.90;;;;;;4855850;29;20206;-77
2024/02/20 10:55:10;;;;;;;11.00;10.20;;;11.40;99.90;;;;;;4860242;29;20660;-77
2024/02/20 10:57:38;;;;;;;12.57;10.77;;;11.30;99.90;;;;;;4859762;29;20681;-77
2024/02/20 11:00:09;;;;;;;12.23;11.10;;;11.30;99.90;;;;;;4860206;29;20674;-77
2024/02/20 11:02:37;;;;;;;14.37;11.27;;;11.20;99.90;;;;;;4864262;29;20253;-79
2024/02/20 11:05:05;;;;;;;11.50;10.40;;;11.10;99.90;;;;;;4861958;29;20201;-76
2024/02/20 11:07:31;;;;;;;11.63;10.60;;;11.10;99.90;;;;;;4861742;29;20241;-76
2024/02/20 11:10:06;;;;;;;10.83;10.13;;;11.10;99.90;;;;;;4858134;29;20271;-76
2024/02/20 11:12:34;;;;;;;12.43;11.30;;;11.20;99.90;;;;;;4862867;29;20763;-76
2024/02/20 11:15:14;;;;;;;11.70;10.63;;;11.20;99.90;;;;;;4861453;29;20781;-76
2024/02/20 11:17:42;;;;;;;11.80;10.70;;;11.20;99.90;;;;;;4871717;29;20235;-77
2024/02/20 11:20:10;;;;;;;11.50;10.60;;;11.20;99.90;;;;;;4865359;29;20207;-77
2024/02/20 11:22:38;;;;;;;12.10;11.00;;;11.20;99.90;;;;;;4867742;29;20654;-77
2024/02/20 11:25:09;;;;;;;12.90;11.70;;;11.10;99.90;;;;;;4862393;29;20667;-77
2024/02/20 11:27:40;;;;;;;11.63;10.63;;;11.20;99.90;;;;;;4865004;29;20299;-77
2024/02/20 11:30:11;;;;;;;12.60;11.30;;;11.30;99.90;;;;;;4865450;29;20313;-77
2024/02/20 11:32:38;;;;;;;11.80;10.53;;;11.40;99.90;;;;;;4864152;29;20238;-77
2024/02/20 11:35:23;;;;;;;11.30;10.50;;;11.50;99.90;;;;;;4865844;29;20258;-77
2024/02/20 11:37:51;;;;;;;12.57;11.57;;;11.60;99.90;;;;;;4861258;29;20271;-76
2024/02/20 11:40:28;;;;;;;12.63;11.33;;;11.60;99.90;;;;;;4866264;29;20219;-77
2024/02/20 11:42:57;;;;;;;12.47;11.50;;;11.60;99.90;;;;;;4861012;29;20218;-78
2024/02/20 11:45:26;;;;;;;12.13;11.17;;;11.70;99.90;;;;;;4862327;29;20650;-77
2024/02/20 11:48:03;;;;;;;13.63;12.23;;;11.70;99.90;;;;;;4864442;29;20212;-77
2024/02/20 11:50:31;;;;;;;13.37;12.07;;;11.70;99.90;;;;;;4865888;29;20316;-77
2024/02/20 11:53:03;;;;;;;13.63;11.60;;;11.80;99.90;;;;;;4866079;29;20202;-77
2024/02/20 11:55:32;;;;;;;13.57;11.67;;;11.90;99.90;;;;;;4865497;29;20209;-77
2024/02/20 11:57:59;;;;;;;13.27;11.80;;;11.90;99.90;;;;;;4865551;29;20258;-77
2024/02/20 12:00:28;;;;;;;13.47;12.27;;;11.90;99.90;;;;;;4865219;29;20797;-77
2024/02/20 12:02:56;;;;;;;12.83;11.53;;;11.90;99.90;;;;;;4866090;29;20288;-77
2024/02/20 12:05:24;;;;;;;12.00;11.10;;;11.90;99.90;;;;;;4865261;29;20202;-77
2024/02/20 12:07:51;;;;;;;12.37;11.30;;;11.80;99.90;;;;;;4865850;29;20259;-77
2024/02/20 12:10:18;;;;;;;12.40;11.40;;;11.80;99.90;;;;;;4864713;29;20210;-77
2024/02/20 12:12:45;;;;;;;12.17;11.17;;;11.80;99.90;;;;;;4868612;29;20293;-77
2024/02/20 12:15:12;;;;;;;13.13;11.67;;;11.90;99.90;;;;;;4862018;29;20246;-77
2024/02/20 12:17:41;;;;;;;12.33;11.23;;;12.00;99.90;;;;;;4868897;29;20220;-77
2024/02/20 12:20:10;;;;;;;14.00;11.00;;;11.90;99.90;;;;;;4865331;29;20202;-77
2024/02/20 12:22:38;;;;;;;11.50;10.40;;;12.10;99.90;;;;;;4865385;29;20240;-77
2024/02/20 12:25:10;;;;;;;12.70;11.40;;;12.30;99.90;;;;;;4864527;29;20670;-77
2024/02/20 12:27:37;;;;;;;13.03;11.47;;;12.30;99.90;;;;;;4864817;29;20632;-78
2024/02/20 12:30:06;;;;;;;11.33;10.37;;;12.30;99.90;;;;;;4865749;29;20734;-77
2024/02/20 12:32:33;;;;;;;11.97;10.60;;;12.30;99.90;;;;;;4864639;29;20214;-77
2024/02/20 12:35:01;;;;;;;11.47;10.37;;;12.20;99.90;;;;;;4860593;29;20227;-77
2024/02/20 12:37:28;;;;;;;11.30;10.43;;;12.00;99.90;;;;;;4866906;29;20206;-77